createdAt,value
2023-10-19T00:02:57.353Z,85.21
2023-10-19T00:08:16.372Z,85.43
2023-10-19T00:13:26.167Z,85.39
2023-10-19T00:18:36.285Z,85.14
2023-10-19T00:23:48.719Z,84.79
2023-10-19T00:28:58.883Z,84.75
2023-10-19T00:34:08.613Z,85.25
2023-10-19T00:39:23.532Z,85.11
2023-10-19T00:44:38.908Z,84.90
2023-10-19T00:49:49.613Z,85.06
2023-10-19T00:55:00.392Z,85.29
2023-10-19T01:00:23.290Z,85.14
2023-10-19T01:05:37.388Z,85.07
2023-10-19T01:10:47.836Z,84.96
2023-10-19T01:16:00.394Z,84.58
2023-10-19T01:21:13.073Z,84.61
2023-10-19T01:26:28.070Z,84.56
2023-10-19T01:31:52.388Z,84.64
2023-10-19T01:37:04.590Z,84.65
2023-10-19T01:42:14.445Z,84.68
2023-10-19T01:47:24.135Z,85.04
2023-10-19T01:52:34.171Z,84.74
2023-10-19T01:57:44.822Z,84.52
2023-10-19T02:02:54.612Z,84.75
2023-10-19T02:08:05.329Z,85.25
2023-10-19T02:13:17.288Z,85.31
2023-10-19T02:18:27.053Z,85.33
2023-10-19T02:23:37.060Z,85.38
2023-10-19T02:28:46.883Z,85.37
2023-10-19T02:34:01.344Z,85.28
2023-10-19T02:39:15.755Z,85.04
2023-10-19T02:44:27.038Z,84.86
2023-10-19T02:49:39.924Z,85.11
2023-10-19T02:54:49.845Z,85.01
2023-10-19T03:00:01.416Z,84.65
2023-10-19T03:05:16.174Z,84.45
2023-10-19T03:10:35.675Z,84.56
2023-10-19T03:15:45.835Z,84.49
2023-10-19T03:20:55.464Z,84.39
2023-10-19T03:26:24.045Z,84.41
2023-10-19T03:31:34.475Z,84.53
2023-10-19T03:36:45.197Z,84.63
2023-10-19T03:41:55.370Z,84.56
2023-10-19T03:47:05.917Z,84.53
2023-10-19T03:52:28.362Z,84.42
2023-10-19T03:57:39.134Z,84.42
2023-10-19T04:02:48.989Z,84.58
2023-10-19T04:07:59.078Z,84.58
2023-10-19T04:13:14.115Z,84.50
2023-10-19T04:18:27.139Z,84.56
2023-10-19T04:23:38.032Z,84.36
2023-10-19T04:28:51.284Z,84.23
2023-10-19T04:34:10.702Z,84.08
2023-10-19T04:39:20.960Z,84.13
2023-10-19T04:44:32.647Z,84.48
2023-10-19T04:49:42.973Z,84.73
2023-10-19T04:54:52.670Z,84.51
2023-10-19T05:00:02.310Z,84.41
2023-10-19T05:05:12.733Z,84.43
2023-10-19T05:10:23.122Z,84.61
2023-10-19T05:15:33.026Z,84.61
2023-10-19T05:20:43.195Z,84.65
2023-10-19T05:25:53.664Z,84.71
2023-10-19T05:31:05.647Z,84.85
2023-10-19T05:36:16.031Z,84.94
2023-10-19T05:41:25.673Z,85.19
2023-10-19T05:46:35.419Z,85.27
2023-10-19T05:51:45.786Z,85.63
2023-10-19T05:56:55.574Z,85.75
2023-10-19T06:02:08.855Z,85.82
2023-10-19T06:07:18.683Z,86.03
2023-10-19T06:12:28.249Z,85.69
2023-10-19T06:17:38.042Z,85.69
2023-10-19T06:22:51.534Z,85.88
2023-10-19T06:28:02.974Z,85.89
2023-10-19T06:33:12.784Z,85.87
2023-10-19T06:38:22.887Z,86.10
2023-10-19T06:43:34.165Z,86.22
2023-10-19T06:48:44.906Z,86.09
2023-10-19T06:53:54.738Z,86.19
2023-10-19T06:59:06.877Z,86.35
2023-10-19T07:04:16.380Z,86.39
2023-10-19T07:09:26.480Z,86.29
2023-10-19T07:14:36.718Z,86.23
2023-10-19T07:19:50.204Z,86.22
2023-10-19T07:25:01.208Z,86.07
2023-10-19T07:30:16.716Z,85.99
2023-10-19T07:35:27.342Z,85.96
2023-10-19T07:40:37.055Z,85.98
2023-10-19T07:45:46.915Z,85.76
2023-10-19T07:50:56.533Z,85.73
2023-10-19T07:56:06.995Z,85.64
2023-10-19T08:01:16.844Z,85.26
2023-10-19T08:06:28.008Z,85.03
2023-10-19T08:11:37.766Z,84.83
2023-10-19T08:16:47.795Z,84.72
2023-10-19T08:21:57.838Z,84.39
2023-10-19T08:27:07.876Z,83.93
2023-10-19T08:32:18.178Z,83.83
2023-10-19T08:37:27.812Z,83.74
2023-10-19T08:42:38.072Z,83.53
2023-10-19T08:47:57.969Z,83.43
2023-10-19T08:53:11.072Z,82.68
2023-10-19T08:58:21.462Z,82.32
2023-10-19T09:03:31.448Z,81.87
2023-10-19T09:08:43.049Z,81.39
2023-10-19T09:13:54.787Z,80.99
2023-10-19T09:19:04.830Z,80.45
2023-10-19T09:24:15.202Z,79.74
2023-10-19T09:29:27.056Z,79.67
2023-10-19T09:34:38.564Z,78.38
2023-10-19T09:39:48.234Z,78.71
2023-10-19T09:45:09.514Z,78.30
2023-10-19T09:50:19.682Z,77.79
2023-10-19T09:55:37.368Z,77.50
2023-10-19T10:00:52.402Z,77.24
2023-10-19T10:06:04.313Z,76.79
2023-10-19T10:11:29.002Z,76.96
2023-10-19T10:16:41.672Z,75.97
2023-10-19T10:22:15.928Z,75.96
2023-10-19T10:27:25.940Z,75.89
2023-10-19T10:32:54.700Z,75.79
2023-10-19T10:38:07.029Z,75.32
2023-10-19T10:43:18.018Z,74.90
2023-10-19T10:48:27.782Z,75.09
2023-10-19T10:53:39.124Z,74.77
2023-10-19T10:58:49.196Z,74.29
2023-10-19T11:04:12.299Z,74.23
2023-10-19T11:09:23.576Z,73.98
2023-10-19T11:14:33.863Z,73.93
2023-10-19T11:19:46.806Z,73.76
2023-10-19T11:24:57.556Z,73.44
2023-10-19T11:30:08.979Z,73.15
2023-10-19T11:35:19.155Z,72.97
2023-10-19T11:40:29.870Z,72.94
2023-10-19T11:45:39.432Z,73.40
2023-10-19T11:50:49.036Z,73.15
2023-10-19T11:55:58.673Z,73.34
2023-10-19T12:01:09.928Z,73.62
2023-10-19T12:06:21.688Z,73.63
2023-10-19T12:11:31.452Z,73.75
2023-10-19T12:16:41.897Z,74.03
2023-10-19T12:21:53.055Z,73.97
2023-10-19T12:27:03.551Z,73.70
2023-10-19T12:32:14.540Z,73.46
2023-10-19T12:37:24.385Z,73.64
2023-10-19T12:42:35.645Z,73.72
2023-10-19T12:47:45.539Z,73.86
2023-10-19T12:52:57.642Z,74.03
2023-10-19T12:58:10.783Z,73.82
2023-10-19T13:03:20.751Z,73.98
2023-10-19T13:08:30.995Z,73.90
2023-10-19T13:13:40.770Z,73.98
2023-10-19T13:18:51.235Z,74.14
2023-10-19T13:24:00.805Z,74.38
2023-10-19T13:29:11.904Z,74.43
2023-10-19T13:34:22.380Z,74.39
2023-10-19T13:39:33.105Z,74.43
2023-10-19T13:44:42.657Z,74.20
2023-10-19T13:49:52.336Z,74.19
2023-10-19T13:55:02.297Z,74.01
2023-10-19T14:00:21.458Z,73.89
2023-10-19T14:05:32.528Z,73.99
2023-10-19T14:10:43.606Z,74.00
2023-10-19T14:15:53.638Z,74.04
2023-10-19T14:21:03.687Z,74.04
2023-10-19T14:26:15.463Z,74.09
2023-10-19T14:31:25.849Z,74.13
2023-10-19T14:36:35.561Z,74.10
2023-10-19T14:41:45.440Z,74.00
2023-10-19T14:46:55.357Z,73.97
2023-10-19T14:52:05.583Z,73.93
2023-10-19T14:57:15.156Z,74.04
2023-10-19T15:02:25.714Z,73.95
2023-10-19T15:07:35.240Z,74.00
2023-10-19T15:12:45.984Z,74.23
2023-10-19T15:17:55.990Z,74.51
2023-10-19T15:23:06.459Z,74.79
2023-10-19T15:28:16.556Z,74.89
2023-10-19T15:33:26.325Z,75.01
2023-10-19T15:38:36.127Z,75.17
2023-10-19T15:43:46.313Z,75.33
2023-10-19T15:48:55.875Z,75.31
2023-10-19T15:54:06.518Z,75.42
2023-10-19T15:59:17.702Z,75.44
2023-10-19T16:04:27.506Z,75.60
2023-10-19T16:09:37.407Z,75.73
2023-10-19T16:14:47.015Z,75.94
2023-10-19T16:19:57.750Z,76.00
2023-10-19T16:25:10.244Z,76.07
2023-10-19T16:30:21.220Z,76.07
2023-10-19T16:35:30.981Z,76.01
2023-10-19T16:40:40.667Z,75.93
2023-10-19T16:45:50.592Z,75.94
2023-10-19T16:51:05.053Z,76.06
2023-10-19T16:56:14.962Z,76.02
2023-10-19T17:01:24.847Z,75.97
2023-10-19T17:06:34.815Z,76.00
2023-10-19T17:11:44.549Z,76.04
2023-10-19T17:16:54.944Z,76.00
2023-10-19T17:22:04.981Z,76.03
2023-10-19T17:27:15.028Z,76.01
2023-10-19T17:32:25.027Z,76.08
2023-10-19T17:37:35.219Z,76.10
2023-10-19T17:42:44.978Z,76.11
2023-10-19T17:47:55.440Z,76.00
2023-10-19T17:53:07.491Z,75.99
2023-10-19T17:58:17.308Z,75.99
2023-10-19T18:03:27.204Z,75.93
2023-10-19T18:08:37.938Z,75.97
2023-10-19T18:13:48.744Z,75.93
2023-10-19T18:18:58.809Z,75.92
2023-10-19T18:24:10.614Z,75.85
2023-10-19T18:29:20.562Z,75.86
2023-10-19T18:34:31.325Z,75.82
2023-10-19T18:39:40.798Z,75.82
2023-10-19T18:44:50.436Z,75.79
2023-10-19T18:50:14.043Z,75.62
2023-10-19T18:55:32.835Z,75.63
2023-10-19T19:00:43.395Z,75.74
2023-10-19T19:05:56.973Z,75.74
2023-10-19T19:11:15.210Z,75.68
2023-10-19T19:16:26.378Z,75.59
2023-10-19T19:21:36.581Z,75.54
2023-10-19T19:26:46.977Z,75.60
2023-10-19T19:31:56.768Z,75.50
2023-10-19T19:37:07.130Z,75.47
2023-10-19T19:42:16.989Z,75.45
2023-10-19T19:47:26.841Z,75.39
2023-10-19T19:52:39.077Z,75.36
2023-10-19T19:57:50.458Z,75.33
2023-10-19T20:03:01.424Z,75.39
2023-10-19T20:08:13.034Z,75.39
2023-10-19T20:13:22.791Z,75.35
2023-10-19T20:18:32.509Z,75.31
2023-10-19T20:23:42.520Z,75.32
2023-10-19T20:28:53.116Z,75.29
2023-10-19T20:34:03.162Z,75.26
2023-10-19T20:39:14.442Z,75.29
2023-10-19T20:44:25.990Z,75.25
2023-10-19T20:49:37.149Z,75.21
2023-10-19T20:54:47.105Z,75.25
2023-10-19T20:59:58.192Z,75.25
2023-10-19T21:05:08.666Z,75.21
2023-10-19T21:10:19.361Z,75.31
2023-10-19T21:15:30.541Z,75.35
2023-10-19T21:20:40.179Z,75.50
2023-10-19T21:25:50.191Z,75.84
2023-10-19T21:31:01.355Z,76.04
2023-10-19T21:36:12.995Z,76.24
2023-10-19T21:41:26.244Z,76.63
2023-10-19T21:46:35.972Z,77.03
2023-10-19T21:51:45.627Z,77.76
2023-10-19T21:56:55.228Z,78.50
2023-10-19T22:02:05.205Z,79.01
2023-10-19T22:07:16.078Z,79.44
2023-10-19T22:12:26.262Z,79.86
2023-10-19T22:17:35.958Z,79.92
2023-10-19T22:22:46.203Z,80.61
2023-10-19T22:27:56.768Z,80.78
2023-10-19T22:33:07.527Z,81.07
2023-10-19T22:38:17.269Z,81.07
2023-10-19T22:43:27.777Z,81.29
2023-10-19T22:48:38.420Z,81.64
2023-10-19T22:53:48.315Z,81.75
2023-10-19T22:58:58.558Z,81.64
2023-10-19T23:04:09.029Z,82.22
2023-10-19T23:09:21.846Z,82.51
2023-10-19T23:14:32.185Z,82.56
2023-10-19T23:19:44.457Z,82.79
2023-10-19T23:24:57.439Z,83.08
2023-10-19T23:30:10.446Z,83.17
2023-10-19T23:35:20.577Z,83.23
2023-10-19T23:40:30.196Z,83.14
2023-10-19T23:45:42.436Z,83.16
2023-10-19T23:50:53.648Z,83.16
2023-10-19T23:56:03.231Z,83.57
